createdAt,value
2019-03-28T00:00:41.789Z,22.50
2019-03-28T00:01:41.757Z,22.50
2019-03-28T00:02:41.730Z,22.10
2019-03-28T00:03:41.701Z,22.90
2019-03-28T00:04:42.183Z,21.70
2019-03-28T00:05:41.644Z,22.60
2019-03-28T00:06:41.615Z,22.30
2019-03-28T00:07:41.588Z,22.60
2019-03-28T00:08:41.558Z,22.00
2019-03-28T00:09:41.529Z,21.60
2019-03-28T00:10:41.499Z,21.80
2019-03-28T00:11:41.472Z,23.20
2019-03-28T00:12:41.441Z,22.70
2019-03-28T00:13:41.415Z,23.10
2019-03-28T00:14:41.383Z,23.90
2019-03-28T00:15:41.357Z,23.90
2019-03-28T00:16:41.328Z,22.60
2019-03-28T00:17:41.300Z,18.80
2019-03-28T00:18:41.270Z,20.70
2019-03-28T00:19:41.241Z,22.70
2019-03-28T00:20:41.218Z,23.50
2019-03-28T00:21:41.184Z,23.50
2019-03-28T00:22:41.154Z,23.20
2019-03-28T00:23:41.128Z,22.60
2019-03-28T00:24:41.097Z,23.10
2019-03-28T00:25:41.072Z,21.50
2019-03-28T00:26:41.042Z,22.10
2019-03-28T00:27:41.012Z,22.00
2019-03-28T00:28:40.991Z,21.30
2019-03-28T00:29:40.952Z,21.40
2019-03-28T00:30:40.925Z,21.70
2019-03-28T00:31:40.911Z,21.50
2019-03-28T00:32:40.867Z,20.70
2019-03-28T00:33:40.838Z,21.80
2019-03-28T00:34:40.809Z,22.20
2019-03-28T00:35:40.780Z,22.60
2019-03-28T00:36:40.752Z,22.10
2019-03-28T00:37:40.723Z,21.90
2019-03-28T00:38:40.694Z,22.90
2019-03-28T00:39:40.664Z,22.70
2019-03-28T00:40:40.635Z,23.10
2019-03-28T00:41:40.608Z,20.60
2019-03-28T00:42:40.578Z,22.70
2019-03-28T00:43:40.549Z,22.70
2019-03-28T00:44:41.206Z,23.20
2019-03-28T00:45:40.491Z,22.10
2019-03-28T00:46:40.462Z,22.40
2019-03-28T00:47:40.437Z,23.40
2019-03-28T00:48:40.406Z,23.30
2019-03-28T00:49:40.382Z,23.20
2019-03-28T00:50:40.347Z,24.00
2019-03-28T00:51:43.032Z,23.30
2019-03-28T00:52:40.712Z,20.90
2019-03-28T00:53:40.263Z,24.20
2019-03-28T00:54:40.233Z,24.10
2019-03-28T00:55:40.204Z,24.60
2019-03-28T00:56:46.827Z,24.50
2019-03-28T00:57:40.146Z,23.90
2019-03-28T00:58:40.117Z,22.40
2019-03-28T00:59:40.093Z,22.60
2019-03-28T01:00:40.215Z,23.20
2019-03-28T01:01:40.031Z,23.80
2019-03-28T01:02:40.004Z,22.20
2019-03-28T01:03:39.972Z,22.00
2019-03-28T01:04:39.944Z,24.00
2019-03-28T01:05:39.917Z,23.90
2019-03-28T01:06:39.886Z,25.70
2019-03-28T01:07:39.857Z,24.90
2019-03-28T01:08:39.828Z,23.30
2019-03-28T01:09:39.803Z,22.30
2019-03-28T01:10:39.771Z,20.60
2019-03-28T01:11:39.743Z,22.20
2019-03-28T01:12:39.713Z,22.10
2019-03-28T01:13:39.685Z,21.80
2019-03-28T01:14:39.655Z,22.80
2019-03-28T01:15:39.627Z,22.50
2019-03-28T01:16:39.627Z,22.80
2019-03-28T01:17:39.569Z,23.10
2019-03-28T01:18:39.538Z,24.60
2019-03-28T01:19:39.511Z,23.20
2019-03-28T01:20:39.482Z,23.50
2019-03-28T01:21:39.456Z,26.10
2019-03-28T01:22:39.427Z,23.60
2019-03-28T01:23:39.397Z,23.40
2019-03-28T01:24:39.367Z,23.90
2019-03-28T01:25:39.338Z,24.30
2019-03-28T01:26:39.312Z,22.70
2019-03-28T01:27:39.281Z,25.00
2019-03-28T01:28:39.257Z,24.20
2019-03-28T01:29:39.222Z,23.10
2019-03-28T01:30:39.193Z,24.00
2019-03-28T01:31:39.165Z,22.70
2019-03-28T01:32:39.136Z,20.40
2019-03-28T01:33:39.112Z,23.40
2019-03-28T01:34:39.079Z,23.50
2019-03-28T01:35:39.049Z,23.70
2019-03-28T01:36:39.021Z,23.80
2019-03-28T01:37:38.991Z,24.80
2019-03-28T01:38:38.964Z,23.70
2019-03-28T01:39:38.934Z,24.20
2019-03-28T01:40:38.905Z,25.50
2019-03-28T01:41:38.878Z,23.90
2019-03-28T01:42:38.847Z,23.80
2019-03-28T01:43:38.819Z,23.10
2019-03-28T01:44:38.791Z,23.70
2019-03-28T01:45:38.762Z,24.60
2019-03-28T01:46:38.732Z,23.50
2019-03-28T01:47:38.703Z,24.10
2019-03-28T01:48:38.676Z,23.50
2019-03-28T01:49:38.646Z,23.70
2019-03-28T01:50:38.616Z,24.00
2019-03-28T01:51:38.588Z,24.80
2019-03-28T01:52:38.559Z,24.30
2019-03-28T01:53:38.532Z,24.50
2019-03-28T01:54:38.500Z,25.20
2019-03-28T01:55:38.472Z,24.50
2019-03-28T01:56:38.445Z,23.00
2019-03-28T01:57:38.912Z,25.30
2019-03-28T01:58:38.385Z,24.30
2019-03-28T01:59:38.356Z,25.40
2019-03-28T02:00:38.485Z,23.40
2019-03-28T02:01:38.299Z,23.40
2019-03-28T02:02:38.269Z,24.60
2019-03-28T02:03:38.241Z,25.00
2019-03-28T02:04:38.212Z,25.90
2019-03-28T02:05:38.185Z,26.50
2019-03-28T02:06:38.154Z,26.50
2019-03-28T02:07:38.126Z,24.50
2019-03-28T02:08:38.100Z,24.40
2019-03-28T02:09:38.073Z,23.60
2019-03-28T02:10:38.038Z,24.70
2019-03-28T02:11:38.010Z,24.00
2019-03-28T02:12:37.988Z,24.30
2019-03-28T02:13:37.954Z,25.90
2019-03-28T02:14:38.330Z,23.40
2019-03-28T02:15:37.898Z,24.40
2019-03-28T02:16:37.866Z,24.80
2019-03-28T02:17:37.836Z,25.20
2019-03-28T02:18:37.807Z,22.90
2019-03-28T02:19:37.777Z,24.20
2019-03-28T02:20:37.749Z,24.20
2019-03-28T02:21:37.722Z,24.70
2019-03-28T02:22:37.691Z,20.90
2019-03-28T02:23:37.663Z,24.20
2019-03-28T02:24:37.633Z,24.00
2019-03-28T02:25:37.604Z,24.20
2019-03-28T02:26:37.576Z,25.10
2019-03-28T02:27:37.545Z,24.50
2019-03-28T02:28:37.517Z,25.40
2019-03-28T02:29:37.487Z,26.90
2019-03-28T02:30:37.458Z,25.30
2019-03-28T02:31:37.430Z,24.30
2019-03-28T02:32:37.401Z,26.30
2019-03-28T02:33:37.372Z,24.90
2019-03-28T02:34:37.345Z,25.40
2019-03-28T02:35:37.320Z,26.00
2019-03-28T02:36:37.291Z,26.80
2019-03-28T02:37:37.256Z,24.60
2019-03-28T02:38:37.229Z,26.10
2019-03-28T02:39:37.200Z,24.90
2019-03-28T02:40:37.169Z,22.50
2019-03-28T02:41:37.141Z,24.30
2019-03-28T02:42:37.115Z,24.90
2019-03-28T02:43:37.095Z,24.20
2019-03-28T02:44:37.589Z,25.90
2019-03-28T02:45:37.027Z,27.70
2019-03-28T02:46:36.997Z,26.30
2019-03-28T02:47:36.969Z,23.80
2019-03-28T02:48:36.938Z,25.10
2019-03-28T02:49:36.913Z,24.70
2019-03-28T02:50:37.715Z,24.30
2019-03-28T02:51:36.861Z,25.90
2019-03-28T02:52:36.854Z,26.30
2019-03-28T02:53:36.794Z,26.40
2019-03-28T02:54:36.764Z,25.50
2019-03-28T02:55:36.735Z,25.30
2019-03-28T02:56:36.706Z,26.10
2019-03-28T02:57:41.726Z,25.10
2019-03-28T02:58:36.953Z,24.50
2019-03-28T02:59:36.619Z,26.60
2019-03-28T03:00:36.599Z,27.10
2019-03-28T03:01:36.570Z,24.60
2019-03-28T03:02:36.537Z,25.80
2019-03-28T03:03:36.506Z,25.60
2019-03-28T03:04:36.474Z,25.30
2019-03-28T03:05:36.447Z,24.60
2019-03-28T03:06:36.416Z,24.90
2019-03-28T03:07:36.394Z,26.40
2019-03-28T03:08:36.361Z,25.80
2019-03-28T03:09:36.334Z,25.50
2019-03-28T03:10:36.304Z,26.80
2019-03-28T03:11:36.279Z,27.20
2019-03-28T03:12:36.243Z,25.80
2019-03-28T03:13:36.213Z,25.50
2019-03-28T03:14:36.185Z,27.30
2019-03-28T03:15:36.155Z,25.90
2019-03-28T03:16:36.128Z,27.20
2019-03-28T03:17:36.099Z,27.10
2019-03-28T03:18:36.071Z,27.80
2019-03-28T03:19:36.039Z,27.30
2019-03-28T03:20:36.012Z,25.30
2019-03-28T03:21:36.314Z,26.00
2019-03-28T03:22:35.952Z,25.60
2019-03-28T03:23:35.929Z,25.90
2019-03-28T03:24:35.895Z,25.10
2019-03-28T03:25:35.868Z,24.40
2019-03-28T03:26:35.839Z,26.10
2019-03-28T03:27:35.809Z,27.00
2019-03-28T03:28:35.896Z,25.50
2019-03-28T03:29:35.754Z,25.80
2019-03-28T03:30:35.722Z,26.80
2019-03-28T03:31:35.696Z,27.30
2019-03-28T03:32:35.665Z,24.40
2019-03-28T03:33:37.115Z,25.50
2019-03-28T03:34:35.605Z,25.70
2019-03-28T03:35:35.578Z,27.10
2019-03-28T03:36:35.550Z,26.90
2019-03-28T03:37:35.520Z,25.80
2019-03-28T03:38:35.493Z,27.40
2019-03-28T03:39:35.470Z,27.60
2019-03-28T03:40:35.440Z,27.40
2019-03-28T03:41:35.406Z,27.90
2019-03-28T03:42:35.379Z,26.70
2019-03-28T03:43:35.345Z,28.00
2019-03-28T03:44:35.319Z,26.90
2019-03-28T03:45:35.721Z,24.80
2019-03-28T03:46:35.259Z,25.20
2019-03-28T03:47:35.230Z,24.60
2019-03-28T03:48:35.204Z,27.30
2019-03-28T03:49:35.178Z,26.60
2019-03-28T03:50:35.145Z,25.10
2019-03-28T03:51:35.122Z,26.90
2019-03-28T03:52:35.085Z,27.00
2019-03-28T03:53:35.058Z,28.20
2019-03-28T03:54:35.028Z,25.90
2019-03-28T03:55:34.999Z,27.10
2019-03-28T03:56:34.972Z,27.00
2019-03-28T03:57:34.966Z,27.80
2019-03-28T03:58:34.911Z,27.40
2019-03-28T03:59:34.883Z,25.60
2019-03-28T04:00:34.860Z,26.70
2019-03-28T04:01:34.826Z,27.70
2019-03-28T04:02:34.796Z,28.20
2019-03-28T04:03:34.769Z,27.40
2019-03-28T04:04:34.754Z,27.30
2019-03-28T04:05:34.715Z,27.70
2019-03-28T04:06:34.681Z,28.50
2019-03-28T04:07:34.654Z,25.60
2019-03-28T04:08:34.625Z,29.20
2019-03-28T04:09:34.595Z,28.50
2019-03-28T04:10:34.577Z,25.40
2019-03-28T04:11:34.550Z,27.60
2019-03-28T04:12:34.518Z,27.70
2019-03-28T04:13:34.485Z,28.30
2019-03-28T04:14:34.459Z,27.30
2019-03-28T04:15:34.420Z,27.40
2019-03-28T04:16:34.393Z,27.10
2019-03-28T04:17:34.368Z,27.10
2019-03-28T04:18:34.340Z,28.10
2019-03-28T04:19:34.309Z,27.80
2019-03-28T04:20:34.277Z,29.40
2019-03-28T04:21:34.251Z,27.50
2019-03-28T04:22:34.223Z,27.60
2019-03-28T04:23:34.191Z,28.40
2019-03-28T04:24:34.162Z,28.20
2019-03-28T04:25:34.143Z,27.70
2019-03-28T04:26:34.103Z,29.40
2019-03-28T04:27:34.075Z,28.10
2019-03-28T04:28:34.045Z,27.90
2019-03-28T04:29:34.019Z,27.60
2019-03-28T04:30:33.989Z,29.00
2019-03-28T04:31:33.965Z,28.60
2019-03-28T04:32:33.939Z,29.10
2019-03-28T04:33:33.905Z,28.20
2019-03-28T04:34:33.873Z,27.70
2019-03-28T04:35:33.849Z,27.50
2019-03-28T04:36:33.816Z,26.90
2019-03-28T04:37:33.789Z,26.90
2019-03-28T04:38:33.758Z,26.70
2019-03-28T04:39:33.729Z,28.30
2019-03-28T04:40:34.448Z,28.90
2019-03-28T04:41:33.673Z,28.90
2019-03-28T04:42:33.642Z,28.70
2019-03-28T04:43:33.616Z,29.30
2019-03-28T04:44:33.587Z,28.40
2019-03-28T04:45:33.557Z,28.20
2019-03-28T04:46:33.529Z,26.30
2019-03-28T04:47:33.500Z,27.80
2019-03-28T04:48:33.474Z,27.50
2019-03-28T04:49:33.447Z,26.90
2019-03-28T04:50:33.414Z,28.20
2019-03-28T04:51:33.386Z,28.70
2019-03-28T04:52:33.358Z,28.20
2019-03-28T04:53:33.329Z,27.10
2019-03-28T04:54:33.299Z,26.70
2019-03-28T04:55:33.270Z,28.40
2019-03-28T04:56:33.251Z,28.90
2019-03-28T04:57:33.215Z,28.40
2019-03-28T04:58:43.819Z,29.50
2019-03-28T04:59:33.156Z,29.00
2019-03-28T05:00:33.382Z,29.70
2019-03-28T05:01:33.104Z,29.20
2019-03-28T05:02:33.071Z,30.10
2019-03-28T05:03:33.044Z,29.80
2019-03-28T05:04:33.034Z,28.80
2019-03-28T05:05:32.990Z,29.10
2019-03-28T05:06:32.955Z,29.90
2019-03-28T05:07:32.929Z,31.70
2019-03-28T05:08:33.417Z,30.30
2019-03-28T05:09:32.872Z,29.40
2019-03-28T05:10:33.195Z,30.60
2019-03-28T05:11:33.333Z,29.50
2019-03-28T05:12:32.786Z,29.90
2019-03-28T05:13:32.758Z,28.50
2019-03-28T05:14:32.729Z,29.20
2019-03-28T05:15:32.704Z,29.40
2019-03-28T05:16:32.671Z,30.90
2019-03-28T05:17:32.645Z,30.70
2019-03-28T05:18:32.616Z,29.20
2019-03-28T05:19:32.585Z,31.20
2019-03-28T05:20:32.558Z,31.30
2019-03-28T05:21:32.529Z,31.50
2019-03-28T05:22:32.500Z,30.30
2019-03-28T05:23:32.472Z,32.40
2019-03-28T05:24:32.645Z,30.80
2019-03-28T05:25:32.414Z,31.80
2019-03-28T05:26:32.388Z,31.60
2019-03-28T05:27:32.880Z,30.50
2019-03-28T05:28:32.334Z,31.70
2019-03-28T05:29:32.302Z,30.80
2019-03-28T05:30:32.273Z,30.20
2019-03-28T05:31:32.243Z,31.30
2019-03-28T05:32:32.217Z,29.90
2019-03-28T05:33:32.188Z,32.60
2019-03-28T05:34:32.159Z,31.30
2019-03-28T05:35:32.132Z,30.70
2019-03-28T05:36:32.106Z,31.30
2019-03-28T05:37:32.074Z,32.00
2019-03-28T05:38:32.044Z,31.80
2019-03-28T05:39:32.016Z,30.70
2019-03-28T05:40:31.989Z,32.50
2019-03-28T05:41:31.961Z,32.70
2019-03-28T05:42:31.934Z,32.50
2019-03-28T05:43:31.902Z,30.90
2019-03-28T05:44:31.876Z,32.10
2019-03-28T05:45:31.848Z,31.70
2019-03-28T05:46:31.818Z,32.00
2019-03-28T05:47:31.792Z,31.40
2019-03-28T05:48:31.765Z,31.70
2019-03-28T05:49:31.734Z,30.90
2019-03-28T05:50:31.705Z,31.20
2019-03-28T05:51:31.679Z,31.00
2019-03-28T05:52:31.649Z,31.90
2019-03-28T05:53:31.620Z,32.40
2019-03-28T05:54:31.591Z,31.30
2019-03-28T05:55:31.565Z,31.30
2019-03-28T05:56:31.535Z,32.00
2019-03-28T05:57:31.507Z,32.90
2019-03-28T05:58:31.478Z,31.10
2019-03-28T05:59:31.453Z,30.70
2019-03-28T06:00:31.422Z,30.30
2019-03-28T06:01:32.311Z,30.60
2019-03-28T06:02:31.363Z,30.60
2019-03-28T06:03:31.336Z,29.90
2019-03-28T06:04:31.311Z,30.80
2019-03-28T06:05:31.280Z,32.20
2019-03-28T06:06:31.251Z,31.60
2019-03-28T06:07:31.225Z,31.20
2019-03-28T06:08:31.195Z,30.60
2019-03-28T06:09:31.171Z,29.60
2019-03-28T06:10:31.138Z,30.50
2019-03-28T06:11:31.133Z,31.90
2019-03-28T06:12:31.082Z,32.20
2019-03-28T06:13:31.053Z,31.20
2019-03-28T06:14:31.024Z,31.50
2019-03-28T06:15:30.997Z,31.60
2019-03-28T06:16:31.042Z,31.40
2019-03-28T06:17:30.940Z,30.90
2019-03-28T06:18:30.912Z,32.10
2019-03-28T06:19:30.885Z,30.10
2019-03-28T06:20:30.856Z,31.00
2019-03-28T06:21:30.829Z,31.60
2019-03-28T06:22:30.799Z,31.30
2019-03-28T06:23:30.772Z,30.70
2019-03-28T06:24:31.249Z,29.40
2019-03-28T06:25:30.716Z,29.90
2019-03-28T06:26:30.690Z,28.90
2019-03-28T06:27:30.661Z,30.00
2019-03-28T06:28:30.631Z,29.20
2019-03-28T06:29:30.602Z,28.80
2019-03-28T06:30:30.575Z,31.50
2019-03-28T06:31:30.549Z,32.70
2019-03-28T06:32:42.254Z,30.10
2019-03-28T06:33:30.492Z,29.10
2019-03-28T06:34:30.463Z,29.90
2019-03-28T06:35:30.435Z,27.40
2019-03-28T06:36:30.405Z,29.60
2019-03-28T06:37:30.380Z,29.70
2019-03-28T06:38:30.353Z,31.40
2019-03-28T06:39:30.323Z,31.00
2019-03-28T06:40:31.307Z,30.30
2019-03-28T06:41:30.266Z,30.20
2019-03-28T06:42:30.239Z,29.10
2019-03-28T06:43:30.213Z,29.60
2019-03-28T06:44:30.184Z,29.30
2019-03-28T06:45:30.154Z,27.70
2019-03-28T06:46:30.125Z,29.80
2019-03-28T06:47:30.098Z,31.20
2019-03-28T06:48:30.068Z,30.10
2019-03-28T06:49:30.042Z,31.40
2019-03-28T06:50:30.013Z,30.80
2019-03-28T06:51:29.985Z,29.10
2019-03-28T06:52:29.958Z,30.90
2019-03-28T06:53:29.929Z,32.10
2019-03-28T06:54:30.577Z,29.90
2019-03-28T06:55:29.877Z,27.60
2019-03-28T06:56:29.846Z,30.10
2019-03-28T06:57:29.818Z,28.90
2019-03-28T06:58:29.788Z,28.50
2019-03-28T06:59:37.119Z,30.10
2019-03-28T07:00:29.734Z,30.20
2019-03-28T07:01:29.706Z,29.60
2019-03-28T07:02:29.680Z,31.00
2019-03-28T07:03:29.649Z,29.60
2019-03-28T07:04:30.258Z,29.90
2019-03-28T07:05:29.595Z,26.40
2019-03-28T07:06:29.569Z,30.40
2019-03-28T07:07:29.537Z,30.40
2019-03-28T07:08:29.510Z,31.10
2019-03-28T07:09:29.483Z,30.20
2019-03-28T07:10:29.455Z,28.90
2019-03-28T07:11:29.428Z,31.60
2019-03-28T07:12:29.398Z,31.70
2019-03-28T07:13:29.371Z,29.80
2019-03-28T07:14:29.345Z,31.70
2019-03-28T07:15:29.315Z,30.40
2019-03-28T07:16:29.288Z,31.70
2019-03-28T07:17:29.268Z,30.90
2019-03-28T07:18:29.232Z,31.30
2019-03-28T07:19:29.243Z,32.00
2019-03-28T07:20:29.177Z,29.60
2019-03-28T07:21:29.149Z,30.50
2019-03-28T07:22:29.120Z,31.70
2019-03-28T07:23:29.092Z,30.60
2019-03-28T07:24:29.064Z,30.60
2019-03-28T07:25:29.038Z,31.00
2019-03-28T07:26:29.010Z,32.70
2019-03-28T07:27:28.981Z,30.90
2019-03-28T07:28:28.954Z,31.80
2019-03-28T07:29:28.937Z,30.60
2019-03-28T07:30:28.898Z,31.50
2019-03-28T07:31:28.869Z,30.90
2019-03-28T07:32:28.843Z,31.30
2019-03-28T07:33:28.823Z,30.60
2019-03-28T07:34:28.787Z,30.70
2019-03-28T07:35:28.760Z,33.40
2019-03-28T07:36:28.732Z,31.50
2019-03-28T07:37:28.707Z,30.90
2019-03-28T07:38:28.676Z,31.00
2019-03-28T07:39:28.650Z,31.50
2019-03-28T07:40:28.621Z,31.10
2019-03-28T07:41:28.593Z,31.10
2019-03-28T07:42:28.564Z,32.80
2019-03-28T07:43:28.538Z,32.00
2019-03-28T07:44:28.692Z,29.70
2019-03-28T07:45:28.485Z,31.30
2019-03-28T07:46:28.454Z,31.30
2019-03-28T07:47:28.428Z,31.50
2019-03-28T07:48:28.400Z,30.20
2019-03-28T07:49:28.373Z,31.70
2019-03-28T07:50:28.344Z,30.10
2019-03-28T07:51:28.327Z,30.00
2019-03-28T07:52:28.291Z,30.40
2019-03-28T07:53:28.263Z,32.60
2019-03-28T07:54:28.234Z,30.60
2019-03-28T07:55:28.207Z,32.30
2019-03-28T07:56:28.179Z,32.30
2019-03-28T07:57:28.154Z,32.50
2019-03-28T07:58:28.125Z,30.80
2019-03-28T07:59:28.100Z,31.80
2019-03-28T08:00:28.070Z,32.40
2019-03-28T08:01:28.055Z,33.20
2019-03-28T08:02:28.016Z,30.50
2019-03-28T08:03:27.985Z,30.00
2019-03-28T08:04:27.958Z,31.70
2019-03-28T08:05:27.932Z,32.00
2019-03-28T08:06:27.904Z,31.90
2019-03-28T08:07:27.879Z,32.70
2019-03-28T08:08:38.237Z,32.60
2019-03-28T08:09:36.598Z,32.90
2019-03-28T08:10:27.792Z,32.10
2019-03-28T08:11:27.890Z,34.40
2019-03-28T08:12:27.737Z,32.70
2019-03-28T08:13:27.711Z,31.60
2019-03-28T08:14:27.682Z,31.80
2019-03-28T08:15:27.655Z,32.80
2019-03-28T08:16:28.924Z,33.10
2019-03-28T08:17:27.599Z,32.10
2019-03-28T08:18:27.572Z,33.30
2019-03-28T08:19:27.545Z,30.10
2019-03-28T08:20:27.516Z,31.20
2019-03-28T08:21:27.490Z,31.60
2019-03-28T08:22:29.679Z,32.50
2019-03-28T08:23:27.434Z,32.30
2019-03-28T08:24:27.406Z,31.80
2019-03-28T08:25:27.379Z,30.90
2019-03-28T08:26:30.074Z,30.10
2019-03-28T08:27:27.324Z,32.20
2019-03-28T08:28:27.296Z,32.60
2019-03-28T08:29:27.270Z,31.90
2019-03-28T08:30:27.240Z,32.70
2019-03-28T08:31:27.212Z,32.50
2019-03-28T08:32:27.186Z,33.80
2019-03-28T08:33:27.158Z,33.10
2019-03-28T08:34:27.129Z,31.30
2019-03-28T08:35:27.102Z,31.40
2019-03-28T08:36:27.074Z,31.30
2019-03-28T08:37:27.047Z,31.90
2019-03-28T08:38:27.018Z,33.00
2019-03-28T08:39:26.991Z,31.70
2019-03-28T08:40:26.964Z,33.10
2019-03-28T08:41:26.937Z,31.20
2019-03-28T08:42:26.909Z,31.50
2019-03-28T08:43:26.880Z,32.80
2019-03-28T08:44:26.852Z,31.50
2019-03-28T08:45:26.827Z,31.50
2019-03-28T08:46:26.798Z,30.20
2019-03-28T08:47:26.771Z,30.60
2019-03-28T08:48:26.742Z,33.70
2019-03-28T08:49:26.715Z,31.80
2019-03-28T08:50:26.691Z,30.40
2019-03-28T08:51:27.499Z,31.50
2019-03-28T08:52:26.634Z,29.30
2019-03-28T08:53:26.608Z,28.80
2019-03-28T08:54:26.578Z,29.50
2019-03-28T08:55:26.551Z,30.60
2019-03-28T08:56:26.525Z,32.50
2019-03-28T08:57:26.502Z,32.90
2019-03-28T08:58:26.468Z,34.10
2019-03-28T08:59:26.441Z,31.90
2019-03-28T09:00:33.063Z,31.60
2019-03-28T09:01:26.388Z,32.60
2019-03-28T09:02:26.359Z,32.00
2019-03-28T09:03:26.331Z,28.00
2019-03-28T09:04:26.306Z,29.00
2019-03-28T09:05:26.281Z,29.90
2019-03-28T09:06:26.258Z,31.90
2019-03-28T09:07:26.231Z,30.80
2019-03-28T09:08:26.198Z,29.90
2019-03-28T09:09:26.171Z,30.40
2019-03-28T09:10:26.142Z,29.10
2019-03-28T09:11:26.116Z,28.90
2019-03-28T09:12:26.090Z,27.70
2019-03-28T09:13:26.063Z,29.10
2019-03-28T09:14:26.038Z,29.00
2019-03-28T09:15:26.010Z,29.20
2019-03-28T09:16:25.983Z,27.90
2019-03-28T09:17:25.954Z,29.80
2019-03-28T09:18:25.927Z,29.60
2019-03-28T09:19:25.912Z,27.40
2019-03-28T09:20:25.874Z,29.50
2019-03-28T09:21:25.846Z,28.90
2019-03-28T09:22:25.818Z,28.60
2019-03-28T09:23:25.792Z,28.30
2019-03-28T09:24:25.765Z,27.90
2019-03-28T09:25:25.737Z,27.50
2019-03-28T09:26:25.711Z,27.90
2019-03-28T09:27:25.684Z,26.20
2019-03-28T09:28:25.666Z,27.90
2019-03-28T09:29:25.632Z,27.00
2019-03-28T09:30:25.605Z,25.90
2019-03-28T09:31:25.577Z,25.30
2019-03-28T09:32:25.550Z,27.80
2019-03-28T09:33:25.525Z,26.70
2019-03-28T09:34:25.510Z,28.50
2019-03-28T09:35:25.469Z,32.10
2019-03-28T09:36:25.451Z,41.40
2019-03-28T09:37:25.415Z,49.30
2019-03-28T09:38:25.388Z,34.10
2019-03-28T09:39:25.369Z,32.30
2019-03-28T09:40:25.337Z,29.10
2019-03-28T09:41:25.309Z,25.50
2019-03-28T09:42:25.283Z,25.90
2019-03-28T09:43:25.255Z,25.50
2019-03-28T09:44:25.228Z,27.40
2019-03-28T09:45:25.201Z,28.50
2019-03-28T09:46:25.176Z,27.90
2019-03-28T09:47:25.147Z,27.20
2019-03-28T09:48:25.121Z,26.30
2019-03-28T09:49:25.094Z,27.50
2019-03-28T09:50:25.066Z,25.70
2019-03-28T09:51:25.041Z,26.30
2019-03-28T09:52:25.014Z,27.00
2019-03-28T09:53:24.989Z,24.90
2019-03-28T09:54:24.959Z,26.00
2019-03-28T09:55:24.934Z,24.90
2019-03-28T09:56:24.907Z,24.70
2019-03-28T09:57:24.880Z,25.40
2019-03-28T09:58:24.854Z,27.50
2019-03-28T09:59:24.827Z,27.30
2019-03-28T10:00:24.804Z,27.10
2019-03-28T10:01:24.776Z,26.80
2019-03-28T10:02:24.746Z,27.90
2019-03-28T10:03:24.721Z,26.40
2019-03-28T10:04:24.693Z,26.10
2019-03-28T10:05:24.669Z,25.70
2019-03-28T10:06:24.640Z,26.90
2019-03-28T10:07:24.611Z,27.80
2019-03-28T10:08:24.586Z,29.40
2019-03-28T10:09:24.559Z,31.50
2019-03-28T10:10:24.532Z,29.40
2019-03-28T10:11:24.504Z,28.30
2019-03-28T10:12:24.478Z,27.60
2019-03-28T10:13:24.451Z,29.30
2019-03-28T10:14:24.424Z,27.70
2019-03-28T10:15:24.400Z,25.90
2019-03-28T10:16:24.384Z,24.50
2019-03-28T10:17:24.347Z,26.50
2019-03-28T10:18:24.317Z,27.40
2019-03-28T10:19:24.292Z,25.30
2019-03-28T10:20:24.264Z,25.70
2019-03-28T10:21:24.241Z,26.50
2019-03-28T10:22:24.212Z,25.40
2019-03-28T10:23:24.184Z,25.80
2019-03-28T10:24:24.160Z,25.20
2019-03-28T10:25:24.132Z,21.10
2019-03-28T10:26:24.105Z,25.30
2019-03-28T10:27:24.080Z,24.20
2019-03-28T10:28:24.052Z,25.40
2019-03-28T10:29:24.027Z,25.30
2019-03-28T10:30:24.021Z,24.50
2019-03-28T10:31:23.974Z,23.60
2019-03-28T10:32:23.946Z,24.90
2019-03-28T10:33:24.536Z,24.10
2019-03-28T10:34:23.895Z,25.20
2019-03-28T10:35:23.868Z,25.10
2019-03-28T10:36:23.844Z,24.90
2019-03-28T10:37:23.816Z,23.90
2019-03-28T10:38:23.792Z,23.80
2019-03-28T10:39:23.765Z,24.70
2019-03-28T10:40:23.737Z,22.10
2019-03-28T10:41:25.871Z,21.30
2019-03-28T10:42:23.684Z,22.10
2019-03-28T10:43:23.660Z,22.30
2019-03-28T10:44:23.632Z,21.60
2019-03-28T10:45:23.606Z,23.10
2019-03-28T10:46:23.578Z,22.60
2019-03-28T10:47:23.553Z,25.60
2019-03-28T10:48:23.652Z,24.60
2019-03-28T10:49:23.501Z,22.80
2019-03-28T10:50:23.474Z,22.50
2019-03-28T10:51:23.447Z,24.00
2019-03-28T10:52:23.422Z,23.10
2019-03-28T10:53:23.396Z,22.70
2019-03-28T10:54:25.788Z,22.70
2019-03-28T10:55:23.342Z,23.20
2019-03-28T10:56:24.185Z,21.10
2019-03-28T10:57:29.941Z,23.20
2019-03-28T10:58:23.263Z,22.40
2019-03-28T10:59:24.065Z,21.30
2019-03-28T11:00:24.524Z,21.50
2019-03-28T11:01:41.486Z,23.50
2019-03-28T11:02:23.158Z,23.20
2019-03-28T11:03:23.133Z,21.50
2019-03-28T11:04:23.107Z,21.50
2019-03-28T11:05:23.079Z,21.60
2019-03-28T11:06:23.052Z,20.00
2019-03-28T11:07:23.026Z,21.50
2019-03-28T11:08:23.002Z,21.30
2019-03-28T11:09:22.975Z,20.30
2019-03-28T11:10:22.948Z,19.50
2019-03-28T11:11:22.926Z,21.80
2019-03-28T11:12:22.897Z,20.00
2019-03-28T11:13:22.871Z,21.90
2019-03-28T11:14:22.843Z,20.20
2019-03-28T11:15:22.818Z,19.10
2019-03-28T11:16:22.791Z,21.50
2019-03-28T11:17:22.765Z,20.00
2019-03-28T11:18:22.739Z,21.40
2019-03-28T11:19:22.713Z,23.40
2019-03-28T11:20:22.687Z,22.60
2019-03-28T11:21:22.662Z,22.20
2019-03-28T11:22:22.632Z,24.50
2019-03-28T11:23:22.608Z,23.10
2019-03-28T11:24:22.581Z,22.00
2019-03-28T11:25:22.555Z,21.20
2019-03-28T11:26:22.530Z,23.20
2019-03-28T11:27:23.547Z,23.20
2019-03-28T11:28:23.484Z,23.00
2019-03-28T11:29:22.450Z,24.50
2019-03-28T11:30:22.424Z,21.60
2019-03-28T11:31:22.397Z,23.70
2019-03-28T11:32:22.372Z,22.20
2019-03-28T11:33:22.489Z,20.00
2019-03-28T11:34:22.319Z,22.10
2019-03-28T11:35:22.293Z,22.00
2019-03-28T11:36:22.274Z,22.10
2019-03-28T11:37:26.502Z,22.80
2019-03-28T11:38:22.217Z,20.10
2019-03-28T11:39:22.189Z,21.60
2019-03-28T11:40:24.567Z,24.20
2019-03-28T11:41:22.137Z,27.60
2019-03-28T11:42:22.111Z,26.40
2019-03-28T11:43:22.090Z,25.40
2019-03-28T11:44:22.059Z,23.00
2019-03-28T11:45:22.033Z,22.60
2019-03-28T11:46:22.006Z,22.20
2019-03-28T11:47:22.498Z,21.10
2019-03-28T11:48:21.954Z,21.90
2019-03-28T11:49:21.930Z,23.10
2019-03-28T11:50:21.901Z,21.00
2019-03-28T11:51:21.876Z,23.30
2019-03-28T11:52:21.850Z,21.20
2019-03-28T11:53:21.826Z,21.00
2019-03-28T11:54:21.798Z,22.80
2019-03-28T11:55:21.773Z,19.50
2019-03-28T11:56:21.747Z,21.20
2019-03-28T11:57:21.721Z,21.30
2019-03-28T11:58:21.694Z,22.00
2019-03-28T11:59:21.667Z,21.90
2019-03-28T12:00:21.643Z,21.10
2019-03-28T12:01:21.615Z,20.70
2019-03-28T12:02:21.589Z,21.60
2019-03-28T12:03:21.563Z,22.90
2019-03-28T12:04:21.538Z,23.20
2019-03-28T12:05:21.512Z,22.60
2019-03-28T12:06:21.486Z,22.50
2019-03-28T12:07:21.459Z,22.00
2019-03-28T12:08:21.433Z,21.70
2019-03-28T12:09:21.406Z,22.50
2019-03-28T12:10:21.381Z,21.90
2019-03-28T12:11:21.361Z,22.20
2019-03-28T12:12:21.330Z,22.10
2019-03-28T12:13:21.304Z,22.20
2019-03-28T12:14:21.276Z,22.00
2019-03-28T12:15:21.250Z,22.90
2019-03-28T12:16:21.225Z,22.60
2019-03-28T12:17:21.199Z,23.30
2019-03-28T12:18:21.188Z,22.40
2019-03-28T12:19:21.148Z,22.70
2019-03-28T12:20:21.120Z,21.80
2019-03-28T12:21:21.093Z,22.60
2019-03-28T12:22:21.069Z,23.90
2019-03-28T12:23:21.054Z,21.90
2019-03-28T12:24:21.015Z,23.20
2019-03-28T12:25:20.988Z,23.90
2019-03-28T12:26:21.029Z,23.40
2019-03-28T12:27:20.935Z,23.90
2019-03-28T12:28:20.909Z,22.90
2019-03-28T12:29:20.882Z,23.70
2019-03-28T12:30:20.855Z,23.60
2019-03-28T12:31:20.828Z,23.30
2019-03-28T12:32:20.802Z,23.00
2019-03-28T12:33:20.776Z,23.30
2019-03-28T12:34:20.763Z,20.90
2019-03-28T12:35:20.726Z,22.60
2019-03-28T12:36:20.731Z,22.10
2019-03-28T12:37:20.672Z,22.30
2019-03-28T12:38:20.643Z,22.20
2019-03-28T12:39:20.909Z,21.70
2019-03-28T12:40:20.592Z,21.60
2019-03-28T12:41:20.565Z,22.40
2019-03-28T12:42:20.539Z,22.10
2019-03-28T12:43:20.510Z,24.30
2019-03-28T12:44:20.485Z,23.00
2019-03-28T12:45:20.459Z,23.20
2019-03-28T12:46:20.431Z,22.00
2019-03-28T12:47:20.405Z,22.50
2019-03-28T12:48:20.380Z,21.90
2019-03-28T12:49:20.352Z,22.10
2019-03-28T12:50:20.325Z,21.20
2019-03-28T12:51:22.222Z,20.90
2019-03-28T12:52:20.274Z,21.10